sensor_id;sensor_type;location;lat;lon;timestamp;temperature;humidity
31639;DHT22;18248;51.522;7.020;2023-12-20T00:01:25;9.30;99.90
31639;DHT22;18248;51.522;7.020;2023-12-20T00:04:24;9.30;99.90
31639;DHT22;18248;51.522;7.020;2023-12-20T00:07:22;9.30;99.90
31639;DHT22;18248;51.522;7.020;2023-12-20T00:10:21;9.20;99.90
31639;DHT22;18248;51.522;7.020;2023-12-20T00:13:19;9.30;99.90
31639;DHT22;18248;51.522;7.020;2023-12-20T00:16:18;9.20;99.90
31639;DHT22;18248;51.522;7.020;2023-12-20T00:19:17;9.20;99.90
31639;DHT22;18248;51.522;7.020;2023-12-20T00:22:15;9.20;99.90
31639;DHT22;18248;51.522;7.020;2023-12-20T00:25:14;9.20;99.90
31639;DHT22;18248;51.522;7.020;2023-12-20T00:28:12;9.10;99.90
31639;DHT22;18248;51.522;7.020;2023-12-20T00:31:11;9.10;99.90
31639;DHT22;18248;51.522;7.020;2023-12-20T00:34:09;9.00;99.90
31639;DHT22;18248;51.522;7.020;2023-12-20T00:37:08;9.00;99.90
31639;DHT22;18248;51.522;7.020;2023-12-20T00:40:07;9.00;99.90
31639;DHT22;18248;51.522;7.020;2023-12-20T00:43:05;9.00;99.90
31639;DHT22;18248;51.522;7.020;2023-12-20T00:46:04;9.00;99.90
31639;DHT22;18248;51.522;7.020;2023-12-20T00:49:02;8.90;99.90
31639;DHT22;18248;51.522;7.020;2023-12-20T00:52:01;8.90;99.90
31639;DHT22;18248;51.522;7.020;2023-12-20T00:55:00;8.90;99.90
31639;DHT22;18248;51.522;7.020;2023-12-20T00:57:58;8.90;99.90
31639;DHT22;18248;51.522;7.020;2023-12-20T01:00:57;8.90;99.90
31639;DHT22;18248;51.522;7.020;2023-12-20T01:03:56;8.80;99.90
31639;DHT22;18248;51.522;7.020;2023-12-20T01:06:55;8.90;99.90
31639;DHT22;18248;51.522;7.020;2023-12-20T01:09:53;8.80;99.90
31639;DHT22;18248;51.522;7.020;2023-12-20T01:12:52;8.80;99.90
31639;DHT22;18248;51.522;7.020;2023-12-20T01:15:50;8.80;99.90
31639;DHT22;18248;51.522;7.020;2023-12-20T01:18:49;8.80;99.90
31639;DHT22;18248;51.522;7.020;2023-12-20T01:21:47;8.80;99.90
31639;DHT22;18248;51.522;7.020;2023-12-20T01:24:46;8.80;99.90
31639;DHT22;18248;51.522;7.020;2023-12-20T01:27:44;8.80;99.90
31639;DHT22;18248;51.522;7.020;2023-12-20T01:30:43;8.70;99.90
31639;DHT22;18248;51.522;7.020;2023-12-20T01:33:41;8.70;99.90
31639;DHT22;18248;51.522;7.020;2023-12-20T01:36:40;8.70;99.90
31639;DHT22;18248;51.522;7.020;2023-12-20T01:39:38;8.60;99.90
31639;DHT22;18248;51.522;7.020;2023-12-20T01:42:37;8.60;99.90
31639;DHT22;18248;51.522;7.020;2023-12-20T01:45:36;8.60;99.90
31639;DHT22;18248;51.522;7.020;2023-12-20T01:48:34;8.60;99.90
31639;DHT22;18248;51.522;7.020;2023-12-20T01:51:34;8.50;99.90
31639;DHT22;18248;51.522;7.020;2023-12-20T01:54:32;8.50;99.90
31639;DHT22;18248;51.522;7.020;2023-12-20T01:57:32;8.50;99.90
31639;DHT22;18248;51.522;7.020;2023-12-20T02:00:31;8.40;99.90
31639;DHT22;18248;51.522;7.020;2023-12-20T02:03:29;8.40;99.90
31639;DHT22;18248;51.522;7.020;2023-12-20T02:06:33;8.40;99.90
31639;DHT22;18248;51.522;7.020;2023-12-20T02:09:33;8.40;99.90
31639;DHT22;18248;51.522;7.020;2023-12-20T02:12:31;8.30;99.90
31639;DHT22;18248;51.522;7.020;2023-12-20T02:15:30;8.30;99.90
31639;DHT22;18248;51.522;7.020;2023-12-20T02:18:28;8.30;99.90
31639;DHT22;18248;51.522;7.020;2023-12-20T02:21:33;8.30;99.90
31639;DHT22;18248;51.522;7.020;2023-12-20T02:24:35;8.30;99.90
31639;DHT22;18248;51.522;7.020;2023-12-20T02:27:34;8.30;99.90
31639;DHT22;18248;51.522;7.020;2023-12-20T02:30:33;8.30;99.90
31639;DHT22;18248;51.522;7.020;2023-12-20T02:33:32;8.30;99.90
31639;DHT22;18248;51.522;7.020;2023-12-20T02:36:30;8.20;99.90
31639;DHT22;18248;51.522;7.020;2023-12-20T02:39:30;8.20;99.90
31639;DHT22;18248;51.522;7.020;2023-12-20T02:42:28;8.20;99.90
31639;DHT22;18248;51.522;7.020;2023-12-20T02:45:27;8.20;99.90
31639;DHT22;18248;51.522;7.020;2023-12-20T02:48:26;8.20;99.90
31639;DHT22;18248;51.522;7.020;2023-12-20T02:51:24;8.20;99.90
31639;DHT22;18248;51.522;7.020;2023-12-20T02:54:23;8.10;99.90
31639;DHT22;18248;51.522;7.020;2023-12-20T02:57:21;8.10;99.90
31639;DHT22;18248;51.522;7.020;2023-12-20T03:00:20;8.00;99.90
31639;DHT22;18248;51.522;7.020;2023-12-20T03:03:18;8.00;99.90
31639;DHT22;18248;51.522;7.020;2023-12-20T03:06:20;7.90;99.90
31639;DHT22;18248;51.522;7.020;2023-12-20T03:09:19;8.00;99.90
31639;DHT22;18248;51.522;7.020;2023-12-20T03:12:17;7.90;99.90
31639;DHT22;18248;51.522;7.020;2023-12-20T03:15:16;8.00;99.90
31639;DHT22;18248;51.522;7.020;2023-12-20T03:18:14;7.90;99.90
31639;DHT22;18248;51.522;7.020;2023-12-20T03:21:13;8.00;99.90
31639;DHT22;18248;51.522;7.020;2023-12-20T03:24:11;7.90;99.90
31639;DHT22;18248;51.522;7.020;2023-12-20T03:27:10;8.00;99.90
31639;DHT22;18248;51.522;7.020;2023-12-20T03:30:09;7.90;99.90
31639;DHT22;18248;51.522;7.020;2023-12-20T03:33:07;7.90;99.90
31639;DHT22;18248;51.522;7.020;2023-12-20T03:36:06;7.90;99.90
31639;DHT22;18248;51.522;7.020;2023-12-20T03:39:05;7.90;99.90
31639;DHT22;18248;51.522;7.020;2023-12-20T03:42:03;7.80;99.90
31639;DHT22;18248;51.522;7.020;2023-12-20T03:45:02;7.80;99.90
31639;DHT22;18248;51.522;7.020;2023-12-20T03:48:01;7.80;99.90
31639;DHT22;18248;51.522;7.020;2023-12-20T03:50:59;7.70;99.90
31639;DHT22;18248;51.522;7.020;2023-12-20T03:53:58;7.70;99.90
31639;DHT22;18248;51.522;7.020;2023-12-20T03:56:56;7.60;99.90
31639;DHT22;18248;51.522;7.020;2023-12-20T03:59:55;7.60;99.90
31639;DHT22;18248;51.522;7.020;2023-12-20T04:02:53;7.60;99.90
31639;DHT22;18248;51.522;7.020;2023-12-20T04:05:52;7.60;99.90
31639;DHT22;18248;51.522;7.020;2023-12-20T04:08:50;7.60;99.90
31639;DHT22;18248;51.522;7.020;2023-12-20T04:11:49;7.60;99.90
31639;DHT22;18248;51.522;7.020;2023-12-20T04:14:47;7.50;99.90
31639;DHT22;18248;51.522;7.020;2023-12-20T04:17:46;7.50;99.90
31639;DHT22;18248;51.522;7.020;2023-12-20T04:20:44;7.50;99.90
31639;DHT22;18248;51.522;7.020;2023-12-20T04:23:44;7.50;99.90
31639;DHT22;18248;51.522;7.020;2023-12-20T04:26:42;7.50;99.90
31639;DHT22;18248;51.522;7.020;2023-12-20T04:29:41;7.40;99.90
31639;DHT22;18248;51.522;7.020;2023-12-20T04:32:39;7.50;99.90
31639;DHT22;18248;51.522;7.020;2023-12-20T04:35:38;7.50;99.90
31639;DHT22;18248;51.522;7.020;2023-12-20T04:38:36;7.50;99.90
31639;DHT22;18248;51.522;7.020;2023-12-20T04:41:35;7.50;99.90
31639;DHT22;18248;51.522;7.020;2023-12-20T04:44:33;7.50;99.90
31639;DHT22;18248;51.522;7.020;2023-12-20T04:47:32;7.40;99.90
31639;DHT22;18248;51.522;7.020;2023-12-20T04:50:30;7.40;99.90
31639;DHT22;18248;51.522;7.020;2023-12-20T04:53:29;7.50;99.90
31639;DHT22;18248;51.522;7.020;2023-12-20T04:56:27;7.50;99.90
31639;DHT22;18248;51.522;7.020;2023-12-20T04:59:26;7.50;99.90
31639;DHT22;18248;51.522;7.020;2023-12-20T05:02:25;7.50;99.90
31639;DHT22;18248;51.522;7.020;2023-12-20T05:05:23;7.50;99.90
31639;DHT22;18248;51.522;7.020;2023-12-20T05:08:22;7.50;99.90
31639;DHT22;18248;51.522;7.020;2023-12-20T05:11:20;7.60;99.90
31639;DHT22;18248;51.522;7.020;2023-12-20T05:14:19;7.50;99.90
31639;DHT22;18248;51.522;7.020;2023-12-20T05:17:17;7.50;99.90
31639;DHT22;18248;51.522;7.020;2023-12-20T05:20:16;7.50;99.90
31639;DHT22;18248;51.522;7.020;2023-12-20T05:23:14;7.50;99.90
31639;DHT22;18248;51.522;7.020;2023-12-20T05:26:13;7.50;99.90
31639;DHT22;18248;51.522;7.020;2023-12-20T05:29:11;7.50;99.90
31639;DHT22;18248;51.522;7.020;2023-12-20T05:32:10;7.50;99.90
31639;DHT22;18248;51.522;7.020;2023-12-20T05:35:09;7.50;99.90
31639;DHT22;18248;51.522;7.020;2023-12-20T05:38:07;7.50;99.90
31639;DHT22;18248;51.522;7.020;2023-12-20T05:41:06;7.50;99.90
31639;DHT22;18248;51.522;7.020;2023-12-20T05:44:04;7.40;99.90
31639;DHT22;18248;51.522;7.020;2023-12-20T05:47:03;7.40;99.90
31639;DHT22;18248;51.522;7.020;2023-12-20T05:50:02;7.40;99.90
31639;DHT22;18248;51.522;7.020;2023-12-20T05:53:00;7.40;99.90
31639;DHT22;18248;51.522;7.020;2023-12-20T05:55:59;7.40;99.90
31639;DHT22;18248;51.522;7.020;2023-12-20T05:58:58;7.40;99.90
31639;DHT22;18248;51.522;7.020;2023-12-20T06:01:57;7.40;99.90
31639;DHT22;18248;51.522;7.020;2023-12-20T06:04:55;7.40;99.90
31639;DHT22;18248;51.522;7.020;2023-12-20T06:07:54;7.40;99.90
31639;DHT22;18248;51.522;7.020;2023-12-20T06:10:54;7.40;99.90
31639;DHT22;18248;51.522;7.020;2023-12-20T06:13:53;7.40;99.90
31639;DHT22;18248;51.522;7.020;2023-12-20T06:16:52;7.40;99.90
31639;DHT22;18248;51.522;7.020;2023-12-20T06:19:50;7.40;99.90
31639;DHT22;18248;51.522;7.020;2023-12-20T06:22:49;7.40;99.90
31639;DHT22;18248;51.522;7.020;2023-12-20T06:25:48;7.40;99.90
31639;DHT22;18248;51.522;7.020;2023-12-20T06:28:46;7.50;99.90
31639;DHT22;18248;51.522;7.020;2023-12-20T06:31:45;7.40;99.90
31639;DHT22;18248;51.522;7.020;2023-12-20T06:34:43;7.40;99.90
31639;DHT22;18248;51.522;7.020;2023-12-20T06:37:42;7.40;99.90
31639;DHT22;18248;51.522;7.020;2023-12-20T06:40:41;7.40;99.90
31639;DHT22;18248;51.522;7.020;2023-12-20T06:43:41;7.50;99.90
31639;DHT22;18248;51.522;7.020;2023-12-20T06:46:39;7.50;99.90
31639;DHT22;18248;51.522;7.020;2023-12-20T06:49:38;7.50;99.90
31639;DHT22;18248;51.522;7.020;2023-12-20T06:52:36;7.50;99.90
31639;DHT22;18248;51.522;7.020;2023-12-20T06:55:36;7.50;99.90
31639;DHT22;18248;51.522;7.020;2023-12-20T06:58:36;7.60;99.90
31639;DHT22;18248;51.522;7.020;2023-12-20T07:01:36;7.50;99.90
31639;DHT22;18248;51.522;7.020;2023-12-20T07:04:38;7.50;99.90
31639;DHT22;18248;51.522;7.020;2023-12-20T07:07:37;7.60;99.90
31639;DHT22;18248;51.522;7.020;2023-12-20T07:10:35;7.60;99.90
31639;DHT22;18248;51.522;7.020;2023-12-20T07:13:34;7.60;99.90
31639;DHT22;18248;51.522;7.020;2023-12-20T07:16:32;7.60;99.90
31639;DHT22;18248;51.522;7.020;2023-12-20T07:19:31;7.60;99.90
31639;DHT22;18248;51.522;7.020;2023-12-20T07:22:30;7.60;99.90
31639;DHT22;18248;51.522;7.020;2023-12-20T07:25:32;7.60;99.90
31639;DHT22;18248;51.522;7.020;2023-12-20T07:28:30;7.60;99.90
31639;DHT22;18248;51.522;7.020;2023-12-20T07:31:29;7.70;99.90
31639;DHT22;18248;51.522;7.020;2023-12-20T07:34:27;7.60;99.90
31639;DHT22;18248;51.522;7.020;2023-12-20T07:37:26;7.70;99.90
31639;DHT22;18248;51.522;7.020;2023-12-20T07:40:25;7.70;99.90
31639;DHT22;18248;51.522;7.020;2023-12-20T07:43:23;7.70;99.90
31639;DHT22;18248;51.522;7.020;2023-12-20T07:46:21;7.70;99.90
31639;DHT22;18248;51.522;7.020;2023-12-20T07:49:23;7.70;99.90
31639;DHT22;18248;51.522;7.020;2023-12-20T07:52:23;7.70;99.90
31639;DHT22;18248;51.522;7.020;2023-12-20T07:55:21;7.80;99.90
31639;DHT22;18248;51.522;7.020;2023-12-20T07:58:21;7.80;99.90
31639;DHT22;18248;51.522;7.020;2023-12-20T08:01:20;7.80;99.90
31639;DHT22;18248;51.522;7.020;2023-12-20T08:04:19;7.80;99.90
31639;DHT22;18248;51.522;7.020;2023-12-20T08:07:17;7.80;99.90
31639;DHT22;18248;51.522;7.020;2023-12-20T08:10:16;7.80;99.90
31639;DHT22;18248;51.522;7.020;2023-12-20T08:13:16;7.80;99.90
31639;DHT22;18248;51.522;7.020;2023-12-20T08:16:15;7.90;99.90
31639;DHT22;18248;51.522;7.020;2023-12-20T08:19:15;7.90;99.90
31639;DHT22;18248;51.522;7.020;2023-12-20T08:22:14;7.90;99.90
31639;DHT22;18248;51.522;7.020;2023-12-20T08:25:12;7.90;99.90
31639;DHT22;18248;51.522;7.020;2023-12-20T08:28:11;7.90;99.90
31639;DHT22;18248;51.522;7.020;2023-12-20T08:31:16;7.90;99.90
31639;DHT22;18248;51.522;7.020;2023-12-20T08:34:15;7.90;99.90
31639;DHT22;18248;51.522;7.020;2023-12-20T08:37:14;7.90;99.90
31639;DHT22;18248;51.522;7.020;2023-12-20T08:40:13;8.00;99.90
31639;DHT22;18248;51.522;7.020;2023-12-20T08:43:12;8.00;99.90
31639;DHT22;18248;51.522;7.020;2023-12-20T08:46:10;8.00;99.90
31639;DHT22;18248;51.522;7.020;2023-12-20T08:49:09;8.00;99.90
31639;DHT22;18248;51.522;7.020;2023-12-20T08:52:08;8.00;99.90
31639;DHT22;18248;51.522;7.020;2023-12-20T08:55:07;8.00;99.90
31639;DHT22;18248;51.522;7.020;2023-12-20T08:58:06;8.10;99.90
31639;DHT22;18248;51.522;7.020;2023-12-20T09:01:05;8.10;99.90
31639;DHT22;18248;51.522;7.020;2023-12-20T09:04:04;8.10;99.90
31639;DHT22;18248;51.522;7.020;2023-12-20T09:07:02;8.10;99.90
31639;DHT22;18248;51.522;7.020;2023-12-20T09:10:01;8.10;99.90
31639;DHT22;18248;51.522;7.020;2023-12-20T09:12:59;8.10;99.90
31639;DHT22;18248;51.522;7.020;2023-12-20T09:15:58;8.10;99.90
31639;DHT22;18248;51.522;7.020;2023-12-20T09:18:57;8.10;99.90
31639;DHT22;18248;51.522;7.020;2023-12-20T09:21:55;8.10;99.90
31639;DHT22;18248;51.522;7.020;2023-12-20T09:24:54;8.20;99.90
31639;DHT22;18248;51.522;7.020;2023-12-20T09:27:52;8.10;99.90
31639;DHT22;18248;51.522;7.020;2023-12-20T09:30:51;8.20;99.90
31639;DHT22;18248;51.522;7.020;2023-12-20T09:33:49;8.10;99.90
31639;DHT22;18248;51.522;7.020;2023-12-20T09:36:48;8.20;99.90
31639;DHT22;18248;51.522;7.020;2023-12-20T09:39:47;8.20;99.90
31639;DHT22;18248;51.522;7.020;2023-12-20T09:42:56;8.20;99.90
31639;DHT22;18248;51.522;7.020;2023-12-20T09:46:00;8.10;99.90
31639;DHT22;18248;51.522;7.020;2023-12-20T09:49:00;8.20;99.90
31639;DHT22;18248;51.522;7.020;2023-12-20T09:52:00;8.20;99.90
31639;DHT22;18248;51.522;7.020;2023-12-20T09:55:00;8.20;99.90
31639;DHT22;18248;51.522;7.020;2023-12-20T09:58:00;8.20;99.90
31639;DHT22;18248;51.522;7.020;2023-12-20T10:00:59;8.20;99.90
31639;DHT22;18248;51.522;7.020;2023-12-20T10:03:59;8.20;99.90
31639;DHT22;18248;51.522;7.020;2023-12-20T10:07:02;8.30;99.90
31639;DHT22;18248;51.522;7.020;2023-12-20T10:10:04;8.30;99.90
31639;DHT22;18248;51.522;7.020;2023-12-20T10:13:12;8.30;99.90
31639;DHT22;18248;51.522;7.020;2023-12-20T10:16:11;8.30;99.90
31639;DHT22;18248;51.522;7.020;2023-12-20T10:19:10;8.30;99.90
31639;DHT22;18248;51.522;7.020;2023-12-20T10:22:08;8.30;99.90
31639;DHT22;18248;51.522;7.020;2023-12-20T10:25:08;8.30;99.90
31639;DHT22;18248;51.522;7.020;2023-12-20T10:28:12;8.30;99.90
31639;DHT22;18248;51.522;7.020;2023-12-20T10:31:29;8.30;99.90
31639;DHT22;18248;51.522;7.020;2023-12-20T10:34:28;8.30;99.90
31639;DHT22;18248;51.522;7.020;2023-12-20T10:37:27;8.40;99.90
31639;DHT22;18248;51.522;7.020;2023-12-20T10:40:27;8.40;99.90
31639;DHT22;18248;51.522;7.020;2023-12-20T10:43:28;8.40;99.90
31639;DHT22;18248;51.522;7.020;2023-12-20T10:46:27;8.30;99.90
31639;DHT22;18248;51.522;7.020;2023-12-20T10:49:31;8.40;99.90
31639;DHT22;18248;51.522;7.020;2023-12-20T10:52:32;8.40;99.90
31639;DHT22;18248;51.522;7.020;2023-12-20T10:55:33;8.40;99.90
31639;DHT22;18248;51.522;7.020;2023-12-20T10:58:33;8.40;99.90
31639;DHT22;18248;51.522;7.020;2023-12-20T11:01:35;8.40;99.90
31639;DHT22;18248;51.522;7.020;2023-12-20T11:04:56;8.40;99.90
31639;DHT22;18248;51.522;7.020;2023-12-20T11:08:02;8.50;99.90
31639;DHT22;18248;51.522;7.020;2023-12-20T11:11:07;8.50;99.90
31639;DHT22;18248;51.522;7.020;2023-12-20T11:14:20;8.50;99.90
31639;DHT22;18248;51.522;7.020;2023-12-20T11:17:21;8.50;99.90
31639;DHT22;18248;51.522;7.020;2023-12-20T11:20:23;8.60;99.90
31639;DHT22;18248;51.522;7.020;2023-12-20T11:23:21;8.50;99.90
31639;DHT22;18248;51.522;7.020;2023-12-20T11:26:26;8.60;99.90
31639;DHT22;18248;51.522;7.020;2023-12-20T11:29:36;8.60;99.90
31639;DHT22;18248;51.522;7.020;2023-12-20T11:32:35;8.60;99.90
31639;DHT22;18248;51.522;7.020;2023-12-20T11:35:34;8.60;99.90
31639;DHT22;18248;51.522;7.020;2023-12-20T11:38:38;8.70;99.90
31639;DHT22;18248;51.522;7.020;2023-12-20T11:41:36;8.70;99.90
31639;DHT22;18248;51.522;7.020;2023-12-20T11:44:37;8.70;99.90
31639;DHT22;18248;51.522;7.020;2023-12-20T11:47:36;8.70;99.90
31639;DHT22;18248;51.522;7.020;2023-12-20T11:50:34;8.70;99.90
31639;DHT22;18248;51.522;7.020;2023-12-20T11:53:33;8.70;99.90
31639;DHT22;18248;51.522;7.020;2023-12-20T11:56:31;8.70;99.90
31639;DHT22;18248;51.522;7.020;2023-12-20T11:59:31;8.60;99.90
31639;DHT22;18248;51.522;7.020;2023-12-20T12:02:30;8.70;99.90
31639;DHT22;18248;51.522;7.020;2023-12-20T12:05:30;8.60;99.90
31639;DHT22;18248;51.522;7.020;2023-12-20T12:08:29;8.60;99.90
31639;DHT22;18248;51.522;7.020;2023-12-20T12:11:28;8.60;99.90
31639;DHT22;18248;51.522;7.020;2023-12-20T12:14:27;8.60;99.90
31639;DHT22;18248;51.522;7.020;2023-12-20T12:17:25;8.60;99.90
31639;DHT22;18248;51.522;7.020;2023-12-20T12:20:25;8.60;99.90
31639;DHT22;18248;51.522;7.020;2023-12-20T12:23:24;8.60;99.90
31639;DHT22;18248;51.522;7.020;2023-12-20T12:26:25;8.60;99.90
31639;DHT22;18248;51.522;7.020;2023-12-20T12:29:23;8.60;99.90
31639;DHT22;18248;51.522;7.020;2023-12-20T12:32:22;8.60;99.90
31639;DHT22;18248;51.522;7.020;2023-12-20T12:35:21;8.60;99.90
31639;DHT22;18248;51.522;7.020;2023-12-20T12:38:21;8.70;99.90
31639;DHT22;18248;51.522;7.020;2023-12-20T12:41:19;8.70;99.90
31639;DHT22;18248;51.522;7.020;2023-12-20T12:44:19;8.70;99.90
31639;DHT22;18248;51.522;7.020;2023-12-20T12:47:18;8.70;99.90
31639;DHT22;18248;51.522;7.020;2023-12-20T12:50:17;8.70;99.90
31639;DHT22;18248;51.522;7.020;2023-12-20T12:53:15;8.80;99.90
31639;DHT22;18248;51.522;7.020;2023-12-20T12:56:15;8.80;99.90
31639;DHT22;18248;51.522;7.020;2023-12-20T12:59:13;8.80;99.90
31639;DHT22;18248;51.522;7.020;2023-12-20T13:02:13;8.80;99.90
31639;DHT22;18248;51.522;7.020;2023-12-20T13:05:12;8.80;99.90
31639;DHT22;18248;51.522;7.020;2023-12-20T13:08:10;8.80;99.90
31639;DHT22;18248;51.522;7.020;2023-12-20T13:11:10;8.80;99.90
31639;DHT22;18248;51.522;7.020;2023-12-20T13:14:09;8.80;99.90
31639;DHT22;18248;51.522;7.020;2023-12-20T13:17:12;8.80;99.90
31639;DHT22;18248;51.522;7.020;2023-12-20T13:20:11;8.70;99.90
31639;DHT22;18248;51.522;7.020;2023-12-20T13:23:09;8.70;99.90
31639;DHT22;18248;51.522;7.020;2023-12-20T13:26:08;8.70;99.90
31639;DHT22;18248;51.522;7.020;2023-12-20T13:29:06;8.70;99.90
31639;DHT22;18248;51.522;7.020;2023-12-20T13:32:05;8.70;99.90
31639;DHT22;18248;51.522;7.020;2023-12-20T13:35:04;8.60;99.90
31639;DHT22;18248;51.522;7.020;2023-12-20T13:38:03;8.60;99.90
31639;DHT22;18248;51.522;7.020;2023-12-20T13:41:02;8.60;99.90
31639;DHT22;18248;51.522;7.020;2023-12-20T13:44:00;8.60;99.90
31639;DHT22;18248;51.522;7.020;2023-12-20T13:47:01;8.50;99.90
31639;DHT22;18248;51.522;7.020;2023-12-20T13:50:00;8.50;99.90
31639;DHT22;18248;51.522;7.020;2023-12-20T13:52:59;8.50;99.90
31639;DHT22;18248;51.522;7.020;2023-12-20T13:55:59;8.50;99.90
31639;DHT22;18248;51.522;7.020;2023-12-20T13:58:58;8.50;99.90
31639;DHT22;18248;51.522;7.020;2023-12-20T14:01:58;8.50;99.90
31639;DHT22;18248;51.522;7.020;2023-12-20T14:04:56;8.50;99.90
31639;DHT22;18248;51.522;7.020;2023-12-20T14:07:55;8.50;99.90
31639;DHT22;18248;51.522;7.020;2023-12-20T14:10:55;8.50;99.90
31639;DHT22;18248;51.522;7.020;2023-12-20T14:13:54;8.50;99.90
31639;DHT22;18248;51.522;7.020;2023-12-20T14:16:56;8.40;99.90
31639;DHT22;18248;51.522;7.020;2023-12-20T14:19:54;8.50;99.90
31639;DHT22;18248;51.522;7.020;2023-12-20T14:22:53;8.50;99.90
31639;DHT22;18248;51.522;7.020;2023-12-20T14:25:53;8.50;99.90
31639;DHT22;18248;51.522;7.020;2023-12-20T14:28:52;8.50;99.90
31639;DHT22;18248;51.522;7.020;2023-12-20T14:31:51;8.50;99.90
31639;DHT22;18248;51.522;7.020;2023-12-20T14:34:50;8.50;99.90
31639;DHT22;18248;51.522;7.020;2023-12-20T14:37:48;8.60;99.90
31639;DHT22;18248;51.522;7.020;2023-12-20T14:40:49;8.60;99.90
31639;DHT22;18248;51.522;7.020;2023-12-20T14:43:49;8.50;99.90
31639;DHT22;18248;51.522;7.020;2023-12-20T14:46:47;8.50;99.90
31639;DHT22;18248;51.522;7.020;2023-12-20T14:49:46;8.60;99.90
31639;DHT22;18248;51.522;7.020;2023-12-20T14:52:46;8.50;99.90
31639;DHT22;18248;51.522;7.020;2023-12-20T14:55:45;8.50;99.90
31639;DHT22;18248;51.522;7.020;2023-12-20T14:58:43;8.50;99.90
31639;DHT22;18248;51.522;7.020;2023-12-20T15:01:43;8.60;99.90
31639;DHT22;18248;51.522;7.020;2023-12-20T15:04:42;8.60;99.90
31639;DHT22;18248;51.522;7.020;2023-12-20T15:07:41;8.60;99.90
31639;DHT22;18248;51.522;7.020;2023-12-20T15:10:39;8.50;99.90
31639;DHT22;18248;51.522;7.020;2023-12-20T15:13:38;8.60;99.90
31639;DHT22;18248;51.522;7.020;2023-12-20T15:16:36;8.60;99.90
31639;DHT22;18248;51.522;7.020;2023-12-20T15:19:35;8.60;99.90
31639;DHT22;18248;51.522;7.020;2023-12-20T15:22:33;8.60;99.90
31639;DHT22;18248;51.522;7.020;2023-12-20T15:25:33;8.60;99.90
31639;DHT22;18248;51.522;7.020;2023-12-20T15:28:32;8.60;99.90
31639;DHT22;18248;51.522;7.020;2023-12-20T15:31:30;8.60;99.90
31639;DHT22;18248;51.522;7.020;2023-12-20T15:34:30;8.60;99.90
31639;DHT22;18248;51.522;7.020;2023-12-20T15:37:30;8.60;99.90
31639;DHT22;18248;51.522;7.020;2023-12-20T15:40:28;8.60;99.90
31639;DHT22;18248;51.522;7.020;2023-12-20T15:43:27;8.60;99.90
31639;DHT22;18248;51.522;7.020;2023-12-20T15:46:25;8.60;99.90
31639;DHT22;18248;51.522;7.020;2023-12-20T15:49:24;8.70;99.90
31639;DHT22;18248;51.522;7.020;2023-12-20T15:52:22;8.60;99.90
31639;DHT22;18248;51.522;7.020;2023-12-20T15:55:21;8.70;99.90
31639;DHT22;18248;51.522;7.020;2023-12-20T15:58:20;8.70;99.90
31639;DHT22;18248;51.522;7.020;2023-12-20T16:01:18;8.70;99.90
31639;DHT22;18248;51.522;7.020;2023-12-20T16:04:17;8.70;99.90
31639;DHT22;18248;51.522;7.020;2023-12-20T16:07:15;8.70;99.90
31639;DHT22;18248;51.522;7.020;2023-12-20T16:10:14;8.70;99.90
31639;DHT22;18248;51.522;7.020;2023-12-20T16:13:12;8.80;99.90
31639;DHT22;18248;51.522;7.020;2023-12-20T16:16:11;8.70;99.90
31639;DHT22;18248;51.522;7.020;2023-12-20T16:19:09;8.70;99.90
31639;DHT22;18248;51.522;7.020;2023-12-20T16:22:08;8.70;99.90
31639;DHT22;18248;51.522;7.020;2023-12-20T16:25:07;8.70;99.90
31639;DHT22;18248;51.522;7.020;2023-12-20T16:28:06;8.70;99.90
31639;DHT22;18248;51.522;7.020;2023-12-20T16:31:05;8.70;99.90
31639;DHT22;18248;51.522;7.020;2023-12-20T16:34:03;8.80;99.90
31639;DHT22;18248;51.522;7.020;2023-12-20T16:37:02;8.80;99.90
31639;DHT22;18248;51.522;7.020;2023-12-20T16:40:01;8.80;99.90
31639;DHT22;18248;51.522;7.020;2023-12-20T16:42:59;8.80;99.90
31639;DHT22;18248;51.522;7.020;2023-12-20T16:45:58;8.80;99.90
31639;DHT22;18248;51.522;7.020;2023-12-20T16:48:56;8.80;99.90
31639;DHT22;18248;51.522;7.020;2023-12-20T16:51:55;8.70;99.90
31639;DHT22;18248;51.522;7.020;2023-12-20T16:54:53;8.70;99.90
31639;DHT22;18248;51.522;7.020;2023-12-20T16:57:52;8.70;99.90
31639;DHT22;18248;51.522;7.020;2023-12-20T17:00:50;8.70;99.90
31639;DHT22;18248;51.522;7.020;2023-12-20T17:03:49;8.70;99.90
31639;DHT22;18248;51.522;7.020;2023-12-20T17:06:51;8.70;99.90
31639;DHT22;18248;51.522;7.020;2023-12-20T17:09:50;8.70;99.90
31639;DHT22;18248;51.522;7.020;2023-12-20T17:12:49;8.70;99.90
31639;DHT22;18248;51.522;7.020;2023-12-20T17:15:47;8.70;99.90
31639;DHT22;18248;51.522;7.020;2023-12-20T17:18:46;8.70;99.90
31639;DHT22;18248;51.522;7.020;2023-12-20T17:21:47;8.70;99.90
31639;DHT22;18248;51.522;7.020;2023-12-20T17:24:46;8.70;99.90
31639;DHT22;18248;51.522;7.020;2023-12-20T17:27:44;8.70;99.90
31639;DHT22;18248;51.522;7.020;2023-12-20T17:30:43;8.70;99.90
31639;DHT22;18248;51.522;7.020;2023-12-20T17:33:42;8.70;99.90
31639;DHT22;18248;51.522;7.020;2023-12-20T17:36:41;8.70;99.90
31639;DHT22;18248;51.522;7.020;2023-12-20T17:39:40;8.80;99.90
31639;DHT22;18248;51.522;7.020;2023-12-20T17:42:38;8.70;99.90
31639;DHT22;18248;51.522;7.020;2023-12-20T17:45:37;8.80;99.90
31639;DHT22;18248;51.522;7.020;2023-12-20T17:48:36;8.80;99.90
31639;DHT22;18248;51.522;7.020;2023-12-20T17:51:34;8.80;99.90
31639;DHT22;18248;51.522;7.020;2023-12-20T17:54:33;8.80;99.90
31639;DHT22;18248;51.522;7.020;2023-12-20T17:57:32;8.80;99.90
31639;DHT22;18248;51.522;7.020;2023-12-20T18:00:32;8.80;99.90
31639;DHT22;18248;51.522;7.020;2023-12-20T18:03:31;8.80;99.90
31639;DHT22;18248;51.522;7.020;2023-12-20T18:06:30;8.80;99.90
31639;DHT22;18248;51.522;7.020;2023-12-20T18:09:29;8.80;99.90
31639;DHT22;18248;51.522;7.020;2023-12-20T18:12:27;8.80;99.90
31639;DHT22;18248;51.522;7.020;2023-12-20T18:15:26;8.80;99.90
31639;DHT22;18248;51.522;7.020;2023-12-20T18:18:24;8.90;99.90
31639;DHT22;18248;51.522;7.020;2023-12-20T18:21:23;8.80;99.90
31639;DHT22;18248;51.522;7.020;2023-12-20T18:24:21;8.80;99.90
31639;DHT22;18248;51.522;7.020;2023-12-20T18:27:20;8.90;99.90
31639;DHT22;18248;51.522;7.020;2023-12-20T18:30:18;8.90;99.90
31639;DHT22;18248;51.522;7.020;2023-12-20T18:33:17;8.90;99.90
31639;DHT22;18248;51.522;7.020;2023-12-20T18:36:15;8.90;99.90
31639;DHT22;18248;51.522;7.020;2023-12-20T18:39:14;8.90;99.90
31639;DHT22;18248;51.522;7.020;2023-12-20T18:42:12;9.00;99.90
31639;DHT22;18248;51.522;7.020;2023-12-20T18:45:11;8.90;99.90
31639;DHT22;18248;51.522;7.020;2023-12-20T18:48:09;8.90;99.90
31639;DHT22;18248;51.522;7.020;2023-12-20T18:51:09;9.00;99.90
31639;DHT22;18248;51.522;7.020;2023-12-20T18:54:08;9.00;99.90
31639;DHT22;18248;51.522;7.020;2023-12-20T18:57:06;9.00;99.90
31639;DHT22;18248;51.522;7.020;2023-12-20T19:00:06;9.00;99.90
31639;DHT22;18248;51.522;7.020;2023-12-20T19:03:05;9.00;99.90
31639;DHT22;18248;51.522;7.020;2023-12-20T19:06:03;9.00;99.90
31639;DHT22;18248;51.522;7.020;2023-12-20T19:09:02;9.00;99.90